sensor_id;sensor_type;location;lat;lon;timestamp;pressure;altitude;pressure_sealevel;temperature;humidity
62600;BME280;48671;48.922;2.346;2023-01-16T00:01:25;99491.25;;;7.55;70.66
62600;BME280;48671;48.922;2.346;2023-01-16T00:03:51;99487.63;;;7.59;70.14
62600;BME280;48671;48.922;2.346;2023-01-16T00:06:16;99460.28;;;7.54;70.26
62600;BME280;48671;48.922;2.346;2023-01-16T00:08:43;99459.75;;;7.64;70.34
62600;BME280;48671;48.922;2.346;2023-01-16T00:11:09;99429.69;;;7.62;70.15
62600;BME280;48671;48.922;2.346;2023-01-16T00:13:35;99417.66;;;7.61;70.24
62600;BME280;48671;48.922;2.346;2023-01-16T00:16:00;99425.28;;;7.64;70.30
62600;BME280;48671;48.922;2.346;2023-01-16T00:18:26;99401.06;;;7.65;70.13
62600;BME280;48671;48.922;2.346;2023-01-16T00:20:51;99383.09;;;7.62;69.96
62600;BME280;48671;48.922;2.346;2023-01-16T00:23:17;99366.56;;;7.64;70.48
62600;BME280;48671;48.922;2.346;2023-01-16T00:25:43;99345.94;;;7.63;70.38
62600;BME280;48671;48.922;2.346;2023-01-16T00:28:10;99329.28;;;7.68;70.27
62600;BME280;48671;48.922;2.346;2023-01-16T00:30:35;99304.25;;;7.69;70.58
62600;BME280;48671;48.922;2.346;2023-01-16T00:33:01;99281.09;;;7.66;69.87
62600;BME280;48671;48.922;2.346;2023-01-16T00:35:27;99274.31;;;7.63;70.84
62600;BME280;48671;48.922;2.346;2023-01-16T00:37:52;99280.03;;;7.70;70.18
62600;BME280;48671;48.922;2.346;2023-01-16T00:40:18;99263.66;;;7.69;70.42
62600;BME280;48671;48.922;2.346;2023-01-16T00:42:44;99232.13;;;7.61;70.64
62600;BME280;48671;48.922;2.346;2023-01-16T00:45:09;99231.81;;;7.67;70.60
62600;BME280;48671;48.922;2.346;2023-01-16T00:47:35;99203.75;;;7.60;70.96
62600;BME280;48671;48.922;2.346;2023-01-16T00:50:00;99200.06;;;7.64;70.88
62600;BME280;48671;48.922;2.346;2023-01-16T00:52:25;99184.84;;;7.58;71.20
62600;BME280;48671;48.922;2.346;2023-01-16T00:54:51;99170.31;;;7.55;71.19
62600;BME280;48671;48.922;2.346;2023-01-16T00:57:16;99162.31;;;7.60;71.28
62600;BME280;48671;48.922;2.346;2023-01-16T00:59:42;99146.88;;;7.58;71.06
62600;BME280;48671;48.922;2.346;2023-01-16T01:02:07;99132.00;;;7.62;70.92
62600;BME280;48671;48.922;2.346;2023-01-16T01:04:32;99121.50;;;7.65;70.53
62600;BME280;48671;48.922;2.346;2023-01-16T01:06:58;99114.75;;;7.62;70.85
62600;BME280;48671;48.922;2.346;2023-01-16T01:09:23;99092.19;;;7.64;70.94
62600;BME280;48671;48.922;2.346;2023-01-16T01:11:48;99067.50;;;7.59;70.81
62600;BME280;48671;48.922;2.346;2023-01-16T01:14:14;99056.63;;;7.68;70.58
62600;BME280;48671;48.922;2.346;2023-01-16T01:16:39;99032.66;;;7.64;70.49
62600;BME280;48671;48.922;2.346;2023-01-16T01:19:05;99027.59;;;7.63;70.51
62600;BME280;48671;48.922;2.346;2023-01-16T01:21:31;99002.69;;;7.60;70.71
62600;BME280;48671;48.922;2.346;2023-01-16T01:23:56;98992.25;;;7.62;71.00
62600;BME280;48671;48.922;2.346;2023-01-16T01:26:22;98986.22;;;7.61;70.75
62600;BME280;48671;48.922;2.346;2023-01-16T01:28:47;98951.75;;;7.61;70.76
62600;BME280;48671;48.922;2.346;2023-01-16T01:31:12;98912.28;;;7.57;70.40
62600;BME280;48671;48.922;2.346;2023-01-16T01:33:38;98905.00;;;7.64;70.66
62600;BME280;48671;48.922;2.346;2023-01-16T01:36:05;98893.53;;;7.68;70.49
62600;BME280;48671;48.922;2.346;2023-01-16T01:38:31;98914.91;;;7.71;70.94
62600;BME280;48671;48.922;2.346;2023-01-16T01:40:56;98883.97;;;7.70;70.51
62600;BME280;48671;48.922;2.346;2023-01-16T01:43:41;98851.22;;;7.69;70.67
62600;BME280;48671;48.922;2.346;2023-01-16T01:46:09;98826.41;;;7.65;71.15
62600;BME280;48671;48.922;2.346;2023-01-16T01:48:40;98841.88;;;7.66;71.91
62600;BME280;48671;48.922;2.346;2023-01-16T01:51:10;98836.03;;;7.63;71.13
62600;BME280;48671;48.922;2.346;2023-01-16T01:56:15;98775.88;;;7.59;72.25
62600;BME280;48671;48.922;2.346;2023-01-16T01:58:43;98761.41;;;7.55;72.39
62600;BME280;48671;48.922;2.346;2023-01-16T02:01:10;98753.56;;;7.57;72.84
62600;BME280;48671;48.922;2.346;2023-01-16T02:03:42;98722.97;;;7.49;73.07
62600;BME280;48671;48.922;2.346;2023-01-16T02:06:18;98724.34;;;7.55;73.61
62600;BME280;48671;48.922;2.346;2023-01-16T02:08:44;98702.19;;;7.50;73.75
62600;BME280;48671;48.922;2.346;2023-01-16T02:11:19;98728.06;;;7.50;73.87
62600;BME280;48671;48.922;2.346;2023-01-16T02:13:57;98659.94;;;7.36;73.86
62600;BME280;48671;48.922;2.346;2023-01-16T02:16:24;98666.31;;;7.44;75.09
62600;BME280;48671;48.922;2.346;2023-01-16T02:19:48;98666.66;;;7.38;75.76
62600;BME280;48671;48.922;2.346;2023-01-16T02:31:06;98603.16;;;7.18;77.86
62600;BME280;48671;48.922;2.346;2023-01-16T02:36:37;98538.88;;;6.98;78.07
62600;BME280;48671;48.922;2.346;2023-01-16T02:42:13;98534.91;;;7.07;77.01
62600;BME280;48671;48.922;2.346;2023-01-16T02:45:02;98539.22;;;7.06;77.77
62600;BME280;48671;48.922;2.346;2023-01-16T02:55:59;98492.50;;;6.95;77.47
62600;BME280;48671;48.922;2.346;2023-01-16T02:58:29;98466.19;;;6.88;77.56
62600;BME280;48671;48.922;2.346;2023-01-16T03:00:58;98478.75;;;6.94;77.56
62600;BME280;48671;48.922;2.346;2023-01-16T03:11:20;98415.59;;;6.84;77.75
62600;BME280;48671;48.922;2.346;2023-01-16T03:19:42;98413.13;;;6.97;77.30
62600;BME280;48671;48.922;2.346;2023-01-16T03:22:17;98384.41;;;6.87;78.39
62600;BME280;48671;48.922;2.346;2023-01-16T03:27:42;98385.69;;;6.94;77.25
62600;BME280;48671;48.922;2.346;2023-01-16T03:30:32;98384.22;;;6.90;77.27
62600;BME280;48671;48.922;2.346;2023-01-16T03:33:52;98378.41;;;6.87;77.83
62600;BME280;48671;48.922;2.346;2023-01-16T03:36:34;98357.91;;;6.84;77.99
62600;BME280;48671;48.922;2.346;2023-01-16T03:39:04;98355.22;;;6.85;78.13
62600;BME280;48671;48.922;2.346;2023-01-16T03:41:34;98360.50;;;6.84;78.11
62600;BME280;48671;48.922;2.346;2023-01-16T03:44:07;98352.00;;;6.82;78.11
62600;BME280;48671;48.922;2.346;2023-01-16T03:46:43;98336.50;;;6.82;78.02
62600;BME280;48671;48.922;2.346;2023-01-16T03:49:17;98309.63;;;6.84;77.45
62600;BME280;48671;48.922;2.346;2023-01-16T03:51:51;98302.59;;;6.86;77.64
62600;BME280;48671;48.922;2.346;2023-01-16T03:59:46;98276.75;;;6.86;76.82
62600;BME280;48671;48.922;2.346;2023-01-16T04:02:20;98257.56;;;6.90;76.36
62600;BME280;48671;48.922;2.346;2023-01-16T04:04:55;98276.28;;;6.94;75.91
62600;BME280;48671;48.922;2.346;2023-01-16T04:07:27;98262.44;;;6.95;75.63
62600;BME280;48671;48.922;2.346;2023-01-16T04:10:02;98256.63;;;6.91;75.37
62600;BME280;48671;48.922;2.346;2023-01-16T04:12:33;98250.72;;;6.89;75.20
62600;BME280;48671;48.922;2.346;2023-01-16T04:15:06;98216.59;;;6.84;74.32
62600;BME280;48671;48.922;2.346;2023-01-16T04:17:34;98209.22;;;6.78;74.46
62600;BME280;48671;48.922;2.346;2023-01-16T04:20:01;98227.38;;;6.91;74.27
62600;BME280;48671;48.922;2.346;2023-01-16T04:22:28;98235.41;;;6.86;74.47
62600;BME280;48671;48.922;2.346;2023-01-16T04:24:56;98222.59;;;6.85;74.06
62600;BME280;48671;48.922;2.346;2023-01-16T04:27:22;98224.16;;;6.87;74.67
62600;BME280;48671;48.922;2.346;2023-01-16T04:29:48;98208.72;;;6.86;74.05
62600;BME280;48671;48.922;2.346;2023-01-16T04:32:13;98206.06;;;6.87;74.58
62600;BME280;48671;48.922;2.346;2023-01-16T04:34:39;98194.78;;;6.88;74.34
62600;BME280;48671;48.922;2.346;2023-01-16T04:37:04;98177.63;;;6.87;73.43
62600;BME280;48671;48.922;2.346;2023-01-16T04:39:29;98167.69;;;6.81;73.93
62600;BME280;48671;48.922;2.346;2023-01-16T04:41:55;98170.97;;;6.83;73.39
62600;BME280;48671;48.922;2.346;2023-01-16T04:44:20;98166.84;;;6.80;73.42
62600;BME280;48671;48.922;2.346;2023-01-16T04:46:45;98155.66;;;6.80;72.58
62600;BME280;48671;48.922;2.346;2023-01-16T04:49:12;98140.09;;;6.82;73.39
62600;BME280;48671;48.922;2.346;2023-01-16T04:51:37;98131.09;;;6.87;73.82
62600;BME280;48671;48.922;2.346;2023-01-16T04:54:05;98121.06;;;6.83;73.33
62600;BME280;48671;48.922;2.346;2023-01-16T04:56:31;98119.28;;;6.83;74.30
62600;BME280;48671;48.922;2.346;2023-01-16T04:58:57;98094.78;;;6.76;74.67
62600;BME280;48671;48.922;2.346;2023-01-16T05:01:22;98086.94;;;6.77;74.31
62600;BME280;48671;48.922;2.346;2023-01-16T05:03:48;98077.22;;;6.81;73.72
62600;BME280;48671;48.922;2.346;2023-01-16T05:06:14;98048.47;;;6.73;74.07
62600;BME280;48671;48.922;2.346;2023-01-16T05:08:39;98071.53;;;6.76;74.28
62600;BME280;48671;48.922;2.346;2023-01-16T05:11:04;98064.50;;;6.78;73.84
62600;BME280;48671;48.922;2.346;2023-01-16T05:13:30;98041.53;;;6.73;74.11
62600;BME280;48671;48.922;2.346;2023-01-16T05:15:56;98032.75;;;6.76;74.74
62600;BME280;48671;48.922;2.346;2023-01-16T05:18:22;98021.91;;;6.71;75.07
62600;BME280;48671;48.922;2.346;2023-01-16T05:20:48;98007.66;;;6.78;75.64
62600;BME280;48671;48.922;2.346;2023-01-16T05:23:13;97993.78;;;6.79;76.15
62600;BME280;48671;48.922;2.346;2023-01-16T05:25:39;97983.16;;;6.84;76.64
62600;BME280;48671;48.922;2.346;2023-01-16T05:28:04;97986.38;;;6.87;76.55
62600;BME280;48671;48.922;2.346;2023-01-16T05:30:30;97986.16;;;6.90;77.63
62600;BME280;48671;48.922;2.346;2023-01-16T05:32:56;97964.88;;;6.87;77.47
62600;BME280;48671;48.922;2.346;2023-01-16T05:35:21;97955.44;;;6.86;77.14
62600;BME280;48671;48.922;2.346;2023-01-16T05:37:47;97950.59;;;6.94;77.05
62600;BME280;48671;48.922;2.346;2023-01-16T05:40:13;97951.50;;;7.06;76.72
62600;BME280;48671;48.922;2.346;2023-01-16T05:42:41;97924.53;;;7.10;75.93
62600;BME280;48671;48.922;2.346;2023-01-16T05:45:07;97923.25;;;7.15;76.05
62600;BME280;48671;48.922;2.346;2023-01-16T05:47:33;97922.97;;;7.20;75.95
62600;BME280;48671;48.922;2.346;2023-01-16T05:49:58;97918.28;;;7.25;75.85
62600;BME280;48671;48.922;2.346;2023-01-16T05:52:27;97906.16;;;7.25;75.83
62600;BME280;48671;48.922;2.346;2023-01-16T05:54:53;97898.75;;;7.21;76.09
62600;BME280;48671;48.922;2.346;2023-01-16T05:57:19;97914.31;;;7.32;76.10
62600;BME280;48671;48.922;2.346;2023-01-16T05:59:52;97886.53;;;7.23;74.81
62600;BME280;48671;48.922;2.346;2023-01-16T06:02:19;97878.31;;;7.29;74.70
62600;BME280;48671;48.922;2.346;2023-01-16T06:04:45;97896.13;;;7.34;73.55
62600;BME280;48671;48.922;2.346;2023-01-16T06:07:11;97863.28;;;7.23;74.29
62600;BME280;48671;48.922;2.346;2023-01-16T06:09:37;97879.06;;;7.31;73.54
62600;BME280;48671;48.922;2.346;2023-01-16T06:12:02;97879.78;;;7.33;73.46
62600;BME280;48671;48.922;2.346;2023-01-16T06:14:27;97864.34;;;7.32;73.25
62600;BME280;48671;48.922;2.346;2023-01-16T06:16:53;97875.09;;;7.38;72.74
62600;BME280;48671;48.922;2.346;2023-01-16T06:19:18;97865.09;;;7.34;73.18
62600;BME280;48671;48.922;2.346;2023-01-16T06:21:43;97879.06;;;7.31;73.59
62600;BME280;48671;48.922;2.346;2023-01-16T06:24:09;97877.47;;;7.41;73.33
62600;BME280;48671;48.922;2.346;2023-01-16T06:26:34;97868.06;;;7.40;73.55
62600;BME280;48671;48.922;2.346;2023-01-16T06:28:59;97844.50;;;7.32;73.21
62600;BME280;48671;48.922;2.346;2023-01-16T06:31:25;97858.66;;;7.39;73.21
62600;BME280;48671;48.922;2.346;2023-01-16T06:33:51;97875.00;;;7.40;73.53
62600;BME280;48671;48.922;2.346;2023-01-16T06:36:16;97857.53;;;7.31;74.13
62600;BME280;48671;48.922;2.346;2023-01-16T06:38:41;97847.81;;;7.34;73.51
62600;BME280;48671;48.922;2.346;2023-01-16T06:41:06;97854.75;;;7.34;73.70
62600;BME280;48671;48.922;2.346;2023-01-16T06:43:32;97850.38;;;7.34;73.78
62600;BME280;48671;48.922;2.346;2023-01-16T06:45:57;97850.59;;;7.31;73.02
62600;BME280;48671;48.922;2.346;2023-01-16T06:48:23;97832.84;;;7.26;72.92
62600;BME280;48671;48.922;2.346;2023-01-16T06:50:48;97830.78;;;7.19;73.60
62600;BME280;48671;48.922;2.346;2023-01-16T06:53:14;97821.72;;;7.13;74.22
62600;BME280;48671;48.922;2.346;2023-01-16T06:55:40;97815.47;;;7.16;74.77
62600;BME280;48671;48.922;2.346;2023-01-16T06:58:07;97790.78;;;7.12;74.49
62600;BME280;48671;48.922;2.346;2023-01-16T07:00:33;97796.09;;;7.10;74.28
62600;BME280;48671;48.922;2.346;2023-01-16T07:03:00;97797.72;;;7.11;74.70
62600;BME280;48671;48.922;2.346;2023-01-16T07:05:27;97779.41;;;7.14;74.27
62600;BME280;48671;48.922;2.346;2023-01-16T07:07:53;97775.19;;;7.13;74.24
62600;BME280;48671;48.922;2.346;2023-01-16T07:10:19;97768.25;;;7.14;73.88
62600;BME280;48671;48.922;2.346;2023-01-16T07:12:46;97739.31;;;7.09;73.79
62600;BME280;48671;48.922;2.346;2023-01-16T07:15:11;97743.00;;;7.17;74.21
62600;BME280;48671;48.922;2.346;2023-01-16T07:17:55;97744.84;;;7.15;73.97
62600;BME280;48671;48.922;2.346;2023-01-16T07:20:40;97742.28;;;7.15;73.28
62600;BME280;48671;48.922;2.346;2023-01-16T07:23:24;97730.16;;;7.16;73.70
62600;BME280;48671;48.922;2.346;2023-01-16T07:25:52;97728.31;;;7.18;73.54
62600;BME280;48671;48.922;2.346;2023-01-16T07:28:18;97707.13;;;7.13;73.90
62600;BME280;48671;48.922;2.346;2023-01-16T07:30:45;97700.53;;;7.09;73.99
62600;BME280;48671;48.922;2.346;2023-01-16T07:33:11;97697.13;;;7.08;74.59
62600;BME280;48671;48.922;2.346;2023-01-16T07:35:37;97684.31;;;7.07;74.27
62600;BME280;48671;48.922;2.346;2023-01-16T07:38:03;97675.25;;;7.01;75.23
62600;BME280;48671;48.922;2.346;2023-01-16T07:40:28;97669.84;;;7.04;74.79
62600;BME280;48671;48.922;2.346;2023-01-16T07:42:53;97669.50;;;7.09;74.93
62600;BME280;48671;48.922;2.346;2023-01-16T07:45:19;97657.41;;;7.09;74.46
62600;BME280;48671;48.922;2.346;2023-01-16T07:47:44;97652.13;;;7.11;75.04
62600;BME280;48671;48.922;2.346;2023-01-16T07:50:10;97642.97;;;7.07;74.91
62600;BME280;48671;48.922;2.346;2023-01-16T07:52:35;97654.56;;;7.01;74.97
62600;BME280;48671;48.922;2.346;2023-01-16T07:55:00;97638.22;;;7.00;75.51
62600;BME280;48671;48.922;2.346;2023-01-16T07:57:26;97616.81;;;6.98;75.38
62600;BME280;48671;48.922;2.346;2023-01-16T07:59:52;97607.31;;;6.99;75.31
62600;BME280;48671;48.922;2.346;2023-01-16T08:02:18;97602.97;;;6.99;75.35
62600;BME280;48671;48.922;2.346;2023-01-16T08:04:44;97609.06;;;6.98;75.68
62600;BME280;48671;48.922;2.346;2023-01-16T08:07:09;97598.16;;;6.95;75.96
62600;BME280;48671;48.922;2.346;2023-01-16T08:09:35;97594.84;;;6.93;75.85
62600;BME280;48671;48.922;2.346;2023-01-16T08:12:00;97592.16;;;6.94;76.19
62600;BME280;48671;48.922;2.346;2023-01-16T08:14:25;97592.47;;;6.90;75.64
62600;BME280;48671;48.922;2.346;2023-01-16T08:16:51;97589.66;;;6.93;75.75
62600;BME280;48671;48.922;2.346;2023-01-16T08:19:16;97577.81;;;6.90;76.25
62600;BME280;48671;48.922;2.346;2023-01-16T08:21:41;97556.66;;;6.85;76.20
62600;BME280;48671;48.922;2.346;2023-01-16T08:24:07;97552.31;;;6.86;76.72
62600;BME280;48671;48.922;2.346;2023-01-16T08:26:33;97550.44;;;6.88;76.07
62600;BME280;48671;48.922;2.346;2023-01-16T08:28:58;97563.69;;;6.83;76.63
62600;BME280;48671;48.922;2.346;2023-01-16T08:31:25;97535.47;;;6.80;75.93
62600;BME280;48671;48.922;2.346;2023-01-16T08:33:50;97532.78;;;6.82;75.97
62600;BME280;48671;48.922;2.346;2023-01-16T08:36:16;97531.84;;;6.83;75.43
62600;BME280;48671;48.922;2.346;2023-01-16T08:38:42;97530.94;;;6.84;76.04
62600;BME280;48671;48.922;2.346;2023-01-16T08:41:08;97539.50;;;6.84;76.00
62600;BME280;48671;48.922;2.346;2023-01-16T08:43:52;97513.22;;;6.90;75.12
62600;BME280;48671;48.922;2.346;2023-01-16T08:46:36;97528.22;;;6.85;74.03
62600;BME280;48671;48.922;2.346;2023-01-16T08:49:20;97525.50;;;6.75;74.02
62600;BME280;48671;48.922;2.346;2023-01-16T08:52:06;97557.31;;;6.76;73.47
62600;BME280;48671;48.922;2.346;2023-01-16T08:54:32;97542.84;;;6.62;72.09
62600;BME280;48671;48.922;2.346;2023-01-16T08:56:57;97543.72;;;6.50;71.84
62600;BME280;48671;48.922;2.346;2023-01-16T08:59:22;97563.78;;;6.46;72.67
62600;BME280;48671;48.922;2.346;2023-01-16T09:01:48;97558.38;;;6.38;72.08
62600;BME280;48671;48.922;2.346;2023-01-16T09:04:13;97565.13;;;6.28;72.67
62600;BME280;48671;48.922;2.346;2023-01-16T09:06:39;97568.19;;;6.33;73.17
62600;BME280;48671;48.922;2.346;2023-01-16T09:09:05;97582.13;;;6.30;72.79
62600;BME280;48671;48.922;2.346;2023-01-16T09:11:34;97583.81;;;6.31;72.73
62600;BME280;48671;48.922;2.346;2023-01-16T09:14:19;97588.25;;;6.29;72.48
62600;BME280;48671;48.922;2.346;2023-01-16T09:16:44;97593.22;;;6.20;72.63
62600;BME280;48671;48.922;2.346;2023-01-16T09:19:10;97592.03;;;6.13;73.05
62600;BME280;48671;48.922;2.346;2023-01-16T09:21:35;97607.59;;;6.11;73.54
62600;BME280;48671;48.922;2.346;2023-01-16T09:24:01;97604.31;;;6.09;73.46
62600;BME280;48671;48.922;2.346;2023-01-16T09:26:28;97620.03;;;6.06;73.39
62600;BME280;48671;48.922;2.346;2023-01-16T09:28:53;97631.28;;;6.05;73.78
62600;BME280;48671;48.922;2.346;2023-01-16T09:31:18;97642.84;;;5.99;73.32
62600;BME280;48671;48.922;2.346;2023-01-16T09:33:44;97639.03;;;5.92;73.60
62600;BME280;48671;48.922;2.346;2023-01-16T09:36:10;97645.22;;;5.90;74.41
62600;BME280;48671;48.922;2.346;2023-01-16T09:38:35;97653.78;;;5.90;74.60
62600;BME280;48671;48.922;2.346;2023-01-16T09:41:01;97660.78;;;5.88;74.50
62600;BME280;48671;48.922;2.346;2023-01-16T09:43:36;97685.66;;;5.89;74.96
62600;BME280;48671;48.922;2.346;2023-01-16T09:48:52;97700.09;;;5.92;75.51
62600;BME280;48671;48.922;2.346;2023-01-16T09:51:24;97691.38;;;5.94;75.72
62600;BME280;48671;48.922;2.346;2023-01-16T09:54:06;97706.56;;;5.99;75.68
62600;BME280;48671;48.922;2.346;2023-01-16T09:56:58;97724.69;;;5.97;75.63
62600;BME280;48671;48.922;2.346;2023-01-16T09:59:53;97730.47;;;6.01;75.98
62600;BME280;48671;48.922;2.346;2023-01-16T10:02:27;97735.03;;;6.10;76.54
62600;BME280;48671;48.922;2.346;2023-01-16T10:04:56;97744.59;;;6.21;76.34
62600;BME280;48671;48.922;2.346;2023-01-16T10:07:38;97754.91;;;6.46;76.50
62600;BME280;48671;48.922;2.346;2023-01-16T10:10:32;97751.81;;;6.54;75.79
62600;BME280;48671;48.922;2.346;2023-01-16T10:27:18;97819.97;;;6.64;75.96
62600;BME280;48671;48.922;2.346;2023-01-16T10:34:56;97847.38;;;6.54;78.07
62600;BME280;48671;48.922;2.346;2023-01-16T10:37:29;97857.91;;;6.51;78.12
62600;BME280;48671;48.922;2.346;2023-01-16T10:39:55;97864.94;;;6.49;78.12
62600;BME280;48671;48.922;2.346;2023-01-16T10:42:26;97878.66;;;6.49;78.72
62600;BME280;48671;48.922;2.346;2023-01-16T10:45:19;97910.59;;;6.48;78.12
62600;BME280;48671;48.922;2.346;2023-01-16T10:48:09;97887.56;;;6.45;77.76
62600;BME280;48671;48.922;2.346;2023-01-16T10:50:55;97898.28;;;6.39;76.40
62600;BME280;48671;48.922;2.346;2023-01-16T10:53:21;97913.47;;;6.44;76.91
62600;BME280;48671;48.922;2.346;2023-01-16T10:55:47;97920.41;;;6.43;76.30
62600;BME280;48671;48.922;2.346;2023-01-16T10:58:36;97944.88;;;6.50;76.19
62600;BME280;48671;48.922;2.346;2023-01-16T11:06:11;97991.28;;;6.52;75.64
62600;BME280;48671;48.922;2.346;2023-01-16T11:08:37;97997.69;;;6.46;74.71
62600;BME280;48671;48.922;2.346;2023-01-16T11:11:03;98008.59;;;6.37;74.87
62600;BME280;48671;48.922;2.346;2023-01-16T11:13:30;98017.78;;;6.28;75.94
62600;BME280;48671;48.922;2.346;2023-01-16T11:16:21;98022.59;;;6.20;76.38
62600;BME280;48671;48.922;2.346;2023-01-16T11:19:20;98037.47;;;6.17;75.98
62600;BME280;48671;48.922;2.346;2023-01-16T11:21:52;98036.72;;;6.15;76.07
62600;BME280;48671;48.922;2.346;2023-01-16T11:24:24;98042.09;;;6.12;76.63
62600;BME280;48671;48.922;2.346;2023-01-16T11:26:54;98058.59;;;6.09;76.48
62600;BME280;48671;48.922;2.346;2023-01-16T11:29:23;98058.50;;;6.10;77.49
62600;BME280;48671;48.922;2.346;2023-01-16T11:31:57;98067.06;;;6.11;77.42
62600;BME280;48671;48.922;2.346;2023-01-16T11:34:24;98069.66;;;6.11;76.96
62600;BME280;48671;48.922;2.346;2023-01-16T11:36:59;98086.63;;;6.15;77.79
62600;BME280;48671;48.922;2.346;2023-01-16T11:39:28;98088.16;;;6.18;78.08
62600;BME280;48671;48.922;2.346;2023-01-16T11:41:57;98078.56;;;6.20;77.51
62600;BME280;48671;48.922;2.346;2023-01-16T11:44:26;98079.22;;;6.23;77.71
62600;BME280;48671;48.922;2.346;2023-01-16T11:47:16;98086.13;;;6.23;78.01
62600;BME280;48671;48.922;2.346;2023-01-16T11:49:48;98118.38;;;6.30;78.31
62600;BME280;48671;48.922;2.346;2023-01-16T11:52:17;98114.22;;;6.27;78.65
62600;BME280;48671;48.922;2.346;2023-01-16T11:55:00;98117.25;;;6.34;78.03
62600;BME280;48671;48.922;2.346;2023-01-16T12:00:06;98139.94;;;6.43;77.69
62600;BME280;48671;48.922;2.346;2023-01-16T12:06:09;98150.81;;;6.48;77.38
62600;BME280;48671;48.922;2.346;2023-01-16T12:11:39;98171.28;;;6.51;76.63
62600;BME280;48671;48.922;2.346;2023-01-16T12:14:20;98174.50;;;6.55;76.64
62600;BME280;48671;48.922;2.346;2023-01-16T12:37:12;98241.50;;;6.85;75.30
62600;BME280;48671;48.922;2.346;2023-01-16T12:56:46;98294.25;;;6.68;75.65
62600;BME280;48671;48.922;2.346;2023-01-16T13:01:47;98316.94;;;6.63;75.74
62600;BME280;48671;48.922;2.346;2023-01-16T13:06:47;98333.38;;;6.62;76.04
62600;BME280;48671;48.922;2.346;2023-01-16T13:09:21;98335.59;;;6.68;75.98
62600;BME280;48671;48.922;2.346;2023-01-16T13:12:09;98324.69;;;6.77;74.26
62600;BME280;48671;48.922;2.346;2023-01-16T13:15:00;98340.66;;;6.84;75.28
62600;BME280;48671;48.922;2.346;2023-01-16T13:17:39;98360.03;;;6.91;74.11
62600;BME280;48671;48.922;2.346;2023-01-16T13:20:10;98353.03;;;6.93;74.43
62600;BME280;48671;48.922;2.346;2023-01-16T13:22:50;98360.97;;;6.90;72.37
62600;BME280;48671;48.922;2.346;2023-01-16T13:25:24;98378.13;;;6.91;73.68
62600;BME280;48671;48.922;2.346;2023-01-16T13:28:01;98379.25;;;6.87;73.34
62600;BME280;48671;48.922;2.346;2023-01-16T13:30:27;98400.00;;;6.86;72.67
62600;BME280;48671;48.922;2.346;2023-01-16T13:33:03;98402.69;;;6.84;72.75
62600;BME280;48671;48.922;2.346;2023-01-16T13:35:50;98408.56;;;6.86;72.51
62600;BME280;48671;48.922;2.346;2023-01-16T13:41:15;98421.78;;;6.96;71.94
62600;BME280;48671;48.922;2.346;2023-01-16T13:44:06;98431.75;;;7.02;71.76
62600;BME280;48671;48.922;2.346;2023-01-16T13:46:51;98435.53;;;7.11;71.35
62600;BME280;48671;48.922;2.346;2023-01-16T13:49:22;98437.84;;;7.15;71.06
62600;BME280;48671;48.922;2.346;2023-01-16T13:51:51;98456.50;;;7.20;70.44
62600;BME280;48671;48.922;2.346;2023-01-16T13:54:23;98450.03;;;7.27;69.78
62600;BME280;48671;48.922;2.346;2023-01-16T13:56:58;98465.44;;;7.43;69.98
62600;BME280;48671;48.922;2.346;2023-01-16T13:59:38;98449.09;;;7.70;68.91
62600;BME280;48671;48.922;2.346;2023-01-16T14:02:40;98464.78;;;7.81;68.43
62600;BME280;48671;48.922;2.346;2023-01-16T14:10:43;98482.75;;;7.70;67.43
62600;BME280;48671;48.922;2.346;2023-01-16T14:15:52;98488.78;;;7.56;67.76
62600;BME280;48671;48.922;2.346;2023-01-16T14:18:42;98494.88;;;7.55;67.16
62600;BME280;48671;48.922;2.346;2023-01-16T14:21:27;98503.69;;;7.53;67.91
62600;BME280;48671;48.922;2.346;2023-01-16T14:23:57;98514.22;;;7.49;67.74
62600;BME280;48671;48.922;2.346;2023-01-16T14:26:49;98514.59;;;7.43;68.30
62600;BME280;48671;48.922;2.346;2023-01-16T14:29:22;98519.75;;;7.43;68.10
62600;BME280;48671;48.922;2.346;2023-01-16T14:34:41;98523.44;;;7.25;67.20
62600;BME280;48671;48.922;2.346;2023-01-16T14:37:15;98518.19;;;7.12;66.32
62600;BME280;48671;48.922;2.346;2023-01-16T14:39:54;98543.97;;;7.14;66.70
62600;BME280;48671;48.922;2.346;2023-01-16T14:42:31;98549.13;;;7.14;66.74
62600;BME280;48671;48.922;2.346;2023-01-16T14:45:33;98548.66;;;7.07;66.77
62600;BME280;48671;48.922;2.346;2023-01-16T14:54:00;98565.84;;;7.22;66.72
62600;BME280;48671;48.922;2.346;2023-01-16T14:56:58;98567.34;;;7.26;66.70
62600;BME280;48671;48.922;2.346;2023-01-16T14:59:30;98568.06;;;7.28;67.30
62600;BME280;48671;48.922;2.346;2023-01-16T15:02:19;98586.28;;;7.27;66.56
62600;BME280;48671;48.922;2.346;2023-01-16T15:07:45;98585.41;;;7.12;66.42
62600;BME280;48671;48.922;2.346;2023-01-16T15:10:28;98590.88;;;7.08;67.74
62600;BME280;48671;48.922;2.346;2023-01-16T15:13:13;98596.03;;;7.08;68.07
62600;BME280;48671;48.922;2.346;2023-01-16T15:15:41;98598.69;;;7.06;67.48
62600;BME280;48671;48.922;2.346;2023-01-16T15:18:12;98610.72;;;7.07;67.71
62600;BME280;48671;48.922;2.346;2023-01-16T15:20:57;98610.06;;;7.03;67.64
62600;BME280;48671;48.922;2.346;2023-01-16T15:23:42;98610.91;;;7.04;68.09
62600;BME280;48671;48.922;2.346;2023-01-16T15:29:33;98622.06;;;7.04;67.71
62600;BME280;48671;48.922;2.346;2023-01-16T15:32:12;98640.50;;;6.98;67.77
62600;BME280;48671;48.922;2.346;2023-01-16T15:34:43;98646.69;;;6.96;68.20
62600;BME280;48671;48.922;2.346;2023-01-16T15:37:23;98641.88;;;6.90;67.90
62600;BME280;48671;48.922;2.346;2023-01-16T15:39:49;98652.31;;;6.88;68.23
62600;BME280;48671;48.922;2.346;2023-01-16T15:45:19;98654.31;;;6.83;67.89
62600;BME280;48671;48.922;2.346;2023-01-16T15:48:42;98656.00;;;6.84;68.30
62600;BME280;48671;48.922;2.346;2023-01-16T15:51:11;98660.50;;;6.80;67.95
62600;BME280;48671;48.922;2.346;2023-01-16T15:53:42;98679.50;;;6.79;68.10
62600;BME280;48671;48.922;2.346;2023-01-16T16:01:51;98685.25;;;6.69;67.36
62600;BME280;48671;48.922;2.346;2023-01-16T16:04:17;98687.25;;;6.64;68.59
62600;BME280;48671;48.922;2.346;2023-01-16T16:06:42;98690.19;;;6.57;68.51
62600;BME280;48671;48.922;2.346;2023-01-16T16:09:20;98690.38;;;6.54;69.01
62600;BME280;48671;48.922;2.346;2023-01-16T16:11:47;98706.94;;;6.50;68.14